Johanne — V2GW4 — position and weather

sailwx.info

Track history (hours):
 
Tides and Currents Weather Stations Pressure Air Temp Water Temp Dewpoint Dewpoint Depression Visibility Wind Speed Wind Dir Waves Ship Positions

Johanne

Last reported at 2018-Feb-15 18:51 UTC. Time now 2018-Feb-22 12:39 UTC.
Position N 35°55' W 005°12'.

Length 90 m; draft 3.8 m.

Type: Cargo ship. MMSI: 305627000.

Date/timePositionNaut miles runAvg speedWind from/ knotsBaromVisibWave heightAir tempDewpointWater temp
2018-Feb-15 18:51N 35°55' W 005°12'410.5
2018-Feb-15 18:28N 35°55' W 005°17'2 5.0
2018-Feb-15 18:00N 35°54' W 005°19'0 0.0
2018-Feb-15 17:26N 35°54' W 005°19'0 0.0
2018-Feb-15 17:00N 35°54' W 005°19'0 0.0
2018-Feb-15 16:30N 35°54' W 005°19'0 0.0
2018-Feb-15 16:00N 35°54' W 005°19'0 0.0
2018-Feb-15 15:30N 35°54' W 005°19'0 0.0
2018-Feb-15 15:00N 35°54' W 005°19'0 0.0
2018-Feb-15 14:30N 35°54' W 005°19'1 1.3
2018-Feb-15 14:00N 35°54' W 005°18'2 4.2
2018-Feb-15 13:31N 35°56' W 005°18'1 1.1
2018-Feb-15 13:00N 35°56' W 005°17'1 2.0
2018-Feb-15 12:30N 35°57' W 005°18'1 2.0
2018-Feb-15 12:00N 35°57' W 005°19'1 2.0
2018-Feb-15 11:30N 35°57' W 005°21'2 3.8
2018-Feb-15 11:00N 35°57' W 005°23'  
2018-Feb-11 09:03N 38°20' W 009°60'3 9.6
2018-Feb-11 08:46N 38°23' W 010°01'3 9.6
2018-Feb-11 08:29N 38°26' W 010°01'5 9.5
2018-Feb-11 08:00N 38°30' W 010°03'5 9.7
2018-Feb-11 07:30N 38°35' W 010°04'5 9.6
2018-Feb-11 07:00N 38°40' W 010°06'5 9.2
2018-Feb-11 06:30N 38°44' W 010°06'5 9.3
2018-Feb-11 06:00N 38°49' W 010°06'5 9.7
2018-Feb-11 05:30N 38°54' W 010°06'5 9.4
2018-Feb-11 05:00N 38°58' W 010°06'5 9.3
2018-Feb-11 04:30N 39°03' W 010°06'5 9.4
2018-Feb-11 03:58N 39°08' W 010°06'4 9.2
2018-Feb-11 03:30N 39°12' W 010°06'  
2018-Feb-07 09:21N 50°04' W 002°09'4 9.6
2018-Feb-07 08:57N 50°04' W 002°03'4 9.6
2018-Feb-07 08:30N 50°03' W 001°56'5 9.8
2018-Feb-07 08:01N 50°01' W 001°50'510.1
2018-Feb-07 07:31N 49°59' W 001°43'510.5
2018-Feb-07 07:00N 49°56' W 001°36'511.0
2018-Feb-07 06:31N 49°54' W 001°28'611.6
2018-Feb-07 06:00N 49°52' W 001°20'611.4
2018-Feb-07 05:30N 49°50' W 001°11'511.0
2018-Feb-07 05:01N 49°47' W 001°04'10 9.9
2018-Feb-07 04:00N 49°43' W 000°50'4 9.0
2018-Feb-07 03:30N 49°41' W 000°44'4 8.4
2018-Feb-07 03:00N 49°39' W 000°38'11 7.5
2018-Feb-07 01:31N 49°34' W 000°22'7 7.4
2018-Feb-07 00:30N 49°31' W 000°12'11 7.4
2018-Feb-06 23:00N 49°27' E 000°04'4 7.9
2018-Feb-06 22:30N 49°26' E 000°10'510.5
2018-Feb-06 22:00N 49°26' E 000°18'1010.2
2018-Feb-06 21:00N 49°27' E 000°34'4 9.0
2018-Feb-06 20:30N 49°29' E 000°40'4 8.8
2018-Feb-06 20:00N 49°31' E 000°46'510.0
2018-Feb-06 19:30N 49°26' E 000°48'2 4.9
2018-Feb-06 19:00N 49°25' E 000°52'3 2.9
2018-Feb-06 18:00N 49°24' E 000°55'3 6.7
2018-Feb-06 17:30N 49°22' E 000°60'4 8.5
2018-Feb-06 17:00N 49°26' E 001°02'1 1.5
2018-Feb-06 16:25N 49°26' E 001°03'0 0.0
2018-Feb-06 15:58N 49°26' E 001°03'0 0.0
2018-Feb-06 15:28N 49°26' E 001°03'0 0.0
2018-Feb-06 14:55N 49°26' E 001°03'0 0.0
2018-Feb-06 14:28N 49°26' E 001°03'0 0.0
2018-Feb-06 13:58N 49°26' E 001°03'0 0.0
2018-Feb-06 13:28N 49°26' E 001°03'0 0.0
2018-Feb-06 12:58N 49°26' E 001°03'0 0.0
2018-Feb-06 12:28N 49°26' E 001°03'0 0.0
2018-Feb-06 11:55N 49°26' E 001°03'0 0.0
2018-Feb-06 11:25N 49°26' E 001°03'0 0.0
2018-Feb-06 10:58N 49°26' E 001°03'0 0.0
2018-Feb-06 10:22N 49°26' E 001°03'0 0.0
2018-Feb-06 09:58N 49°26' E 001°03'0 0.0
2018-Feb-06 09:28N 49°26' E 001°03'0 0.0
2018-Feb-06 08:58N 49°26' E 001°03'0 0.0
2018-Feb-06 08:28N 49°26' E 001°03'0 0.0
2018-Feb-06 07:58N 49°26' E 001°03'0 0.0
2018-Feb-06 07:28N 49°26' E 001°03'0 0.0
2018-Feb-06 06:58N 49°26' E 001°03'0 0.0
2018-Feb-06 06:28N 49°26' E 001°03'0 0.0
2018-Feb-06 05:58N 49°26' E 001°03'0 0.0
2018-Feb-06 05:28N 49°26' E 001°03'0 0.0
2018-Feb-06 04:58N 49°26' E 001°03'0 0.0
2018-Feb-06 04:28N 49°26' E 001°03'0 0.0
2018-Feb-06 03:58N 49°26' E 001°03'0 0.0
2018-Feb-06 03:25N 49°26' E 001°03'0 0.0
2018-Feb-06 02:58N 49°26' E 001°03'0 0.0
2018-Feb-06 02:28N 49°26' E 001°03'0 0.0
2018-Feb-06 01:58N 49°26' E 001°03'0 0.0
2018-Feb-06 01:22N 49°26' E 001°03'0 0.0
2018-Feb-06 00:58N 49°26' E 001°03'0 0.0
2018-Feb-06 00:28N 49°26' E 001°03'0 0.0
2018-Feb-05 23:58N 49°26' E 001°03'0 0.0
2018-Feb-05 23:25N 49°26' E 001°03'0 0.0
2018-Feb-05 22:58N 49°26' E 001°03'0 0.0
2018-Feb-05 22:28N 49°26' E 001°03'0 0.0
2018-Feb-05 21:58N 49°26' E 001°03'0 0.0
2018-Feb-05 21:28N 49°26' E 001°03'0 0.0
2018-Feb-05 20:58N 49°26' E 001°03'0 0.0
2018-Feb-05 20:28N 49°26' E 001°03'0 0.0
2018-Feb-05 19:58N 49°26' E 001°03'0 0.0
2018-Feb-05 19:28N 49°26' E 001°03'0 0.0
2018-Feb-05 18:55N 49°26' E 001°03'  
Track history (hours):
 
Tides and Currents Weather Stations Pressure Air Temp Water Temp Dewpoint Dewpoint Depression Visibility Wind Speed Wind Dir Waves Ship Positions

Johanne

Last reported at 2018-Feb-15 18:51 UTC. Time now 2018-Feb-22 12:39 UTC.
Position N 35°55' W 005°12'.

Length 90 m; draft 3.8 m.

Type: Cargo ship. MMSI: 305627000.

Date/timePositionNaut miles runAvg speedWind from/ knotsBaromVisibWave heightAir tempDewpointWater temp
2018-Feb-15 18:51N 35°55' W 005°12'410.5
2018-Feb-15 18:28N 35°55' W 005°17'2 5.0
2018-Feb-15 18:00N 35°54' W 005°19'0 0.0
2018-Feb-15 17:26N 35°54' W 005°19'0 0.0
2018-Feb-15 17:00N 35°54' W 005°19'0 0.0
2018-Feb-15 16:30N 35°54' W 005°19'0 0.0
2018-Feb-15 16:00N 35°54' W 005°19'0 0.0
2018-Feb-15 15:30N 35°54' W 005°19'0 0.0
2018-Feb-15 15:00N 35°54' W 005°19'0 0.0
2018-Feb-15 14:30N 35°54' W 005°19'1 1.3
2018-Feb-15 14:00N 35°54' W 005°18'2 4.2
2018-Feb-15 13:31N 35°56' W 005°18'1 1.1
2018-Feb-15 13:00N 35°56' W 005°17'1 2.0
2018-Feb-15 12:30N 35°57' W 005°18'1 2.0
2018-Feb-15 12:00N 35°57' W 005°19'1 2.0
2018-Feb-15 11:30N 35°57' W 005°21'2 3.8
2018-Feb-15 11:00N 35°57' W 005°23'  
2018-Feb-11 09:03N 38°20' W 009°60'3 9.6
2018-Feb-11 08:46N 38°23' W 010°01'3 9.6
2018-Feb-11 08:29N 38°26' W 010°01'5 9.5
2018-Feb-11 08:00N 38°30' W 010°03'5 9.7
2018-Feb-11 07:30N 38°35' W 010°04'5 9.6
2018-Feb-11 07:00N 38°40' W 010°06'5 9.2
2018-Feb-11 06:30N 38°44' W 010°06'5 9.3
2018-Feb-11 06:00N 38°49' W 010°06'5 9.7
2018-Feb-11 05:30N 38°54' W 010°06'5 9.4
2018-Feb-11 05:00N 38°58' W 010°06'5 9.3
2018-Feb-11 04:30N 39°03' W 010°06'5 9.4
2018-Feb-11 03:58N 39°08' W 010°06'4 9.2
2018-Feb-11 03:30N 39°12' W 010°06'  
2018-Feb-07 09:21N 50°04' W 002°09'4 9.6
2018-Feb-07 08:57N 50°04' W 002°03'4 9.6
2018-Feb-07 08:30N 50°03' W 001°56'5 9.8
2018-Feb-07 08:01N 50°01' W 001°50'510.1
2018-Feb-07 07:31N 49°59' W 001°43'510.5
2018-Feb-07 07:00N 49°56' W 001°36'511.0
2018-Feb-07 06:31N 49°54' W 001°28'611.6
2018-Feb-07 06:00N 49°52' W 001°20'611.4
2018-Feb-07 05:30N 49°50' W 001°11'511.0
2018-Feb-07 05:01N 49°47' W 001°04'10 9.9
2018-Feb-07 04:00N 49°43' W 000°50'4 9.0
2018-Feb-07 03:30N 49°41' W 000°44'4 8.4
2018-Feb-07 03:00N 49°39' W 000°38'11 7.5
2018-Feb-07 01:31N 49°34' W 000°22'7 7.4
2018-Feb-07 00:30N 49°31' W 000°12'11 7.4
2018-Feb-06 23:00N 49°27' E 000°04'4 7.9
2018-Feb-06 22:30N 49°26' E 000°10'510.5
2018-Feb-06 22:00N 49°26' E 000°18'1010.2
2018-Feb-06 21:00N 49°27' E 000°34'4 9.0
2018-Feb-06 20:30N 49°29' E 000°40'4 8.8
2018-Feb-06 20:00N 49°31' E 000°46'510.0
2018-Feb-06 19:30N 49°26' E 000°48'2 4.9
2018-Feb-06 19:00N 49°25' E 000°52'3 2.9
2018-Feb-06 18:00N 49°24' E 000°55'3 6.7
2018-Feb-06 17:30N 49°22' E 000°60'4 8.5
2018-Feb-06 17:00N 49°26' E 001°02'1 1.5
2018-Feb-06 16:25N 49°26' E 001°03'0 0.0
2018-Feb-06 15:58N 49°26' E 001°03'0 0.0
2018-Feb-06 15:28N 49°26' E 001°03'0 0.0
2018-Feb-06 14:55N 49°26' E 001°03'0 0.0
2018-Feb-06 14:28N 49°26' E 001°03'0 0.0
2018-Feb-06 13:58N 49°26' E 001°03'0 0.0
2018-Feb-06 13:28N 49°26' E 001°03'0 0.0
2018-Feb-06 12:58N 49°26' E 001°03'0 0.0
2018-Feb-06 12:28N 49°26' E 001°03'0 0.0
2018-Feb-06 11:55N 49°26' E 001°03'0 0.0
2018-Feb-06 11:25N 49°26' E 001°03'0 0.0
2018-Feb-06 10:58N 49°26' E 001°03'0 0.0
2018-Feb-06 10:22N 49°26' E 001°03'0 0.0
2018-Feb-06 09:58N 49°26' E 001°03'0 0.0
2018-Feb-06 09:28N 49°26' E 001°03'0 0.0
2018-Feb-06 08:58N 49°26' E 001°03'0 0.0
2018-Feb-06 08:28N 49°26' E 001°03'0 0.0
2018-Feb-06 07:58N 49°26' E 001°03'0 0.0
2018-Feb-06 07:28N 49°26' E 001°03'0 0.0
2018-Feb-06 06:58N 49°26' E 001°03'0 0.0
2018-Feb-06 06:28N 49°26' E 001°03'0 0.0
2018-Feb-06 05:58N 49°26' E 001°03'0 0.0
2018-Feb-06 05:28N 49°26' E 001°03'0 0.0
2018-Feb-06 04:58N 49°26' E 001°03'0 0.0
2018-Feb-06 04:28N 49°26' E 001°03'0 0.0
2018-Feb-06 03:58N 49°26' E 001°03'0 0.0
2018-Feb-06 03:25N 49°26' E 001°03'0 0.0
2018-Feb-06 02:58N 49°26' E 001°03'0 0.0
2018-Feb-06 02:28N 49°26' E 001°03'0 0.0
2018-Feb-06 01:58N 49°26' E 001°03'0 0.0
2018-Feb-06 01:22N 49°26' E 001°03'0 0.0
2018-Feb-06 00:58N 49°26' E 001°03'0 0.0
2018-Feb-06 00:28N 49°26' E 001°03'0 0.0
2018-Feb-05 23:58N 49°26' E 001°03'0 0.0
2018-Feb-05 23:25N 49°26' E 001°03'0 0.0
2018-Feb-05 22:58N 49°26' E 001°03'0 0.0
2018-Feb-05 22:28N 49°26' E 001°03'0 0.0
2018-Feb-05 21:58N 49°26' E 001°03'0 0.0
2018-Feb-05 21:28N 49°26' E 001°03'0 0.0
2018-Feb-05 20:58N 49°26' E 001°03'0 0.0
2018-Feb-05 20:28N 49°26' E 001°03'0 0.0
2018-Feb-05 19:58N 49°26' E 001°03'0 0.0
2018-Feb-05 19:28N 49°26' E 001°03'0 0.0
2018-Feb-05 18:55N 49°26' E 001°03'  

Dump ship's entire track history